Latest Weather Observations for Camden

IDN60901

Issued at 3:01 pm EST Thursday 28 May 2020 (issued every 10 minutes, with the page automatically refreshed every 10 minutes)

About weather observations | Map of Sydney area stations | Latest observations for Sydney area | Other Formats
Station Details ID: 068192 Name: CAMDEN AIRPORT AWS Lat: -34.04 Lon: 150.69 Height: 73.9 m
Data from the previous 72 hours. | See also: Recent months at Camden
Date/Time
EST
Temp
°C
App
Temp
°C
Dew
Point
°C
Rel
Hum
%
Delta-T
°C
Wind Press
QNH
hPa
Press
MSL
hPa
Rain since
9am
mm
Dir  Spd
km/h
Gust
km/h
Spd
kts
Gust
kts
28/02:30pm 21.6 18.6 9.2 45 6.6 SW 15 20 8 11 1019.3 1019.3 0.0
28/02:00pm 21.4 17.9 8.7 44 6.7 WSW 17 22 9 12 1019.3 1019.3 0.0
28/01:30pm 21.2 17.3 8.8 45 6.6 WSW 19 24 10 13 1019.3 1019.3 0.0
28/01:00pm 21.0 17.5 8.9 46 6.4 WSW 17 24 9 13 1019.6 1019.6 0.0
28/12:30pm 20.7 17.3 9.0 47 6.2 WSW 17 24 9 13 1020.0 1020.0 0.0
28/12:00pm 20.0 16.2 9.0 49 5.8 W 19 24 10 13 1020.3 1020.3 0.0
28/11:30am 19.3 18.4 11.3 60 4.4 NNW 7 13 4 7 1020.7 1020.7 0.0
28/11:00am 17.6 16.2 10.9 65 3.6 NNW 9 13 5 7 1021.2 1021.2 0.0
28/10:30am 16.6 15.2 10.9 69 3.1 NNW 9 11 5 6 1021.6 1021.6 0.0
28/10:00am 15.3 14.6 11.3 77 2.1 NNW 6 7 3 4 1022.0 1022.0 0.0
28/09:30am 13.4 13.9 11.5 88 1.0 CALM 0 0 0 0 1022.1 1022.1 0.0
28/09:00am 10.7 10.9 10.5 99 0.1 CALM 0 0 0 0 1022.1 1022.1 0.0
28/08:30am 9.1 8.9 9.0 99 0.0 CALM 0 0 0 0 1022.0 1022.0 0.0
28/08:00am 7.9 7.4 7.8 99 0.0 CALM 0 0 0 0 1021.8 1021.8 0.0
28/07:53am 7.8 7.3 7.7 99 0.0 CALM 0 0 0 0 1021.7 1021.7 0.0
28/07:30am 6.7 5.9 6.6 99 0.0 CALM 0 0 0 0 1021.6 1021.6 0.0
28/07:18am 6.0 5.1 5.9 99 0.0 CALM 0 0 0 0 1021.5 1021.5 0.0
28/07:17am 5.9 4.9 5.8 99 0.0 CALM 0 0 0 0 1021.5 1021.5 0.0
28/07:00am 6.2 5.3 6.1 99 0.0 CALM 0 0 0 0 1021.2 1021.2 0.0
28/06:40am 6.3 5.4 6.2 99 0.0 CALM 0 0 0 0 1021.0 1021.0 0.0
28/06:30am 6.3 5.4 6.2 99 0.0 CALM 0 0 0 0 1020.9 1020.9 0.0
28/06:00am 6.6 5.8 6.5 99 0.0 CALM 0 0 0 0 1020.7 1020.7 0.0
28/05:30am 6.7 5.9 6.6 99 0.0 CALM 0 0 0 0 1020.4 1020.4 0.0
28/05:00am 7.6 7.0 7.5 99 0.0 CALM 0 0 0 0 1020.2 1020.2 0.0
28/04:30am 7.9 7.4 7.8 99 0.0 CALM 0 0 0 0 1020.3 1020.3 0.0
28/04:27am 7.9 7.4 7.8 99 0.0 CALM 0 0 0 0 1020.3 1020.3 0.0
28/04:00am 8.2 7.8 8.1 99 0.0 CALM 0 0 0 0 1020.4 1020.4 0.0
28/03:34am 8.5 8.1 8.4 99 0.0 CALM 0 0 0 0 1020.2 1020.2 0.0
28/03:30am 8.8 8.5 8.7 99 0.0 CALM 0 0 0 0 1020.3 1020.3 0.0
28/03:25am 8.7 8.4 8.6 99 0.0 CALM 0 0 0 0 1020.3 1020.3 0.0
28/03:00am 8.7 8.4 8.6 99 0.0 CALM 0 0 0 0 1020.3 1020.3 0.0
28/02:55am 8.6 8.3 8.5 99 0.0 CALM 0 0 0 0 1020.4 1020.4 0.0
28/02:32am 8.9 8.6 8.8 99 0.0 CALM 0 0 0 0 1020.5 1020.5 0.0
28/02:30am 8.8 8.5 8.7 99 0.0 CALM 0 0 0 0 1020.5 1020.5 0.0
28/02:00am 8.7 8.4 8.6 99 0.0 CALM 0 0 0 0 1020.4 1020.4 0.0
28/01:38am 8.6 8.3 8.5 99 0.0 CALM 0 0 0 0 1020.4 1020.4 0.0
28/01:31am 8.6 8.3 8.5 99 0.0 CALM 0 0 0 0 1020.4 1020.4 0.0
28/01:30am 8.6 8.3 8.5 99 0.0 CALM 0 0 0 0 1020.4 1020.4 0.0
28/01:00am 8.7 8.4 8.6 99 0.0 CALM 0 0 0 0 1020.4 1020.4 0.0
28/12:37am 8.8 8.5 8.7 99 0.0 CALM 0 0 0 0 1020.5 1020.5 0.0
28/12:30am 8.8 8.5 8.7 99 0.0 CALM 0 0 0 0 1020.4 1020.4 0.0
28/12:00am 8.6 8.3 8.5 99 0.0 CALM 0 0 0 0 1020.5 1020.5 0.0
 
Date/Time
EST
Temp
°C
App
Temp
°C
Dew
Point
°C
Rel
Hum
%
Delta-T
°C
Wind Press
QNH
hPa
Press
MSL
hPa
Rain since
9am
mm
Dir  Spd
km/h
Gust
km/h
Spd
kts
Gust
kts
27/11:30pm 8.7 8.4 8.6 99 0.0 CALM 0 0 0 0 1020.6 1020.6 0.0
27/11:17pm 8.6 8.3 8.5 99 0.0 CALM 0 0 0 0 1020.8 1020.8 0.0
27/11:00pm 9.3 9.1 9.2 99 0.0 CALM 0 0 0 0 1020.8 1020.8 0.0
27/10:30pm 9.5 9.4 9.4 99 0.0 CALM 0 0 0 0 1021.2 1021.2 0.0
27/10:00pm 10.2 10.3 10.1 99 0.1 CALM 0 0 0 0 1021.2 1021.2 0.0
27/09:30pm 10.5 10.6 10.3 99 0.1 CALM 0 0 0 0 1021.4 1021.4 0.0
27/09:12pm 11.2 11.5 10.9 98 0.2 CALM 0 0 0 0 1021.3 1021.3 0.0
27/09:00pm 11.2 11.5 10.9 98 0.2 CALM 0 0 0 0 1021.4 1021.4 0.0
27/08:30pm 11.5 11.8 10.9 96 0.3 CALM 0 0 0 0 1021.3 1021.3 0.0
27/08:00pm 12.5 13.1 11.9 96 0.3 CALM 0 0 0 0 1021.2 1021.2 0.0
27/07:30pm 12.6 13.1 11.7 94 0.5 CALM 0 0 0 0 1021.0 1021.0 0.0
27/07:00pm 12.9 13.4 11.6 92 0.7 CALM 0 0 0 0 1020.9 1020.9 0.0
27/06:30pm 13.3 13.7 11.2 87 1.1 CALM 0 0 0 0 1020.7 1020.7 0.0
27/06:00pm 14.0 14.0 11.0 82 1.6 ESE 2 7 1 4 1020.4 1020.4 0.0
27/05:30pm 14.8 15.1 11.0 78 2.0 CALM 0 0 0 0 1020.2 1020.2 0.0
27/05:00pm 15.9 14.9 10.9 72 2.7 ENE 7 11 4 6 1019.9 1019.9 0.0
27/04:30pm 16.2 15.7 9.4 64 3.5 ENE 2 7 1 4 1019.6 1019.6 0.0
27/04:00pm 16.5 16.4 9.4 63 3.7 CALM 0 0 0 0 1019.7 1019.7 0.0
27/03:30pm 18.6 18.3 8.6 52 5.2 CALM 0 0 0 0 1019.8 1019.8 0.0
27/03:00pm 19.2 18.7 7.9 48 5.8 CALM 0 0 0 0 1019.7 1019.7 0.0
27/02:30pm 19.7 18.7 9.0 50 5.6 NE 4 11 2 6 1019.8 1019.8 0.0
27/02:00pm 19.7 18.2 9.0 50 5.6 NE 7 13 4 7 1020.2 1020.2 0.0
27/01:30pm 20.4 20.0 9.9 51 5.7 NNW 2 7 1 4 1020.5 1020.5 0.0
27/01:00pm 19.1 17.4 8.4 50 5.5 NW 7 11 4 6 1020.9 1020.9 0.0
27/12:30pm 19.1 18.7 9.6 54 5.0 ESE 2 9 1 5 1021.1 1021.1 0.0
27/12:00pm 18.6 18.2 9.7 56 4.7 SW 2 7 1 4 1021.3 1021.3 0.0
27/11:30am 17.5 16.7 9.7 60 4.1 WSW 4 9 2 5 1021.9 1021.9 0.0
27/11:00am 17.3 17.6 10.9 66 3.4 CALM 0 6 0 3 1022.4 1022.4 0.0
27/10:30am 16.9 17.3 11.2 69 3.1 CALM 0 11 0 6 1022.8 1022.8 0.0
27/10:00am 15.9 15.4 10.9 72 2.7 SE 4 11 2 6 1023.2 1023.2 0.0
27/09:30am 15.3 14.3 10.9 75 2.3 SSE 7 11 4 6 1023.0 1023.0 0.0
27/09:00am 14.3 14.5 10.7 79 1.9 CALM 0 0 0 0 1023.0 1023.0 1.2
27/08:30am 12.6 12.6 11.0 90 0.8 W 2 7 1 4 1023.2 1023.2 1.2
27/08:00am 11.0 11.3 10.8 99 0.1 CALM 0 0 0 0 1023.3 1023.3 1.0
27/07:30am 9.4 9.3 9.3 99 0.0 CALM 0 0 0 0 1023.1 1023.1 1.0
27/07:27am 9.9 9.9 9.8 99 0.1 CALM 0 0 0 0 1023.0 1023.0 1.0
27/07:04am 8.8 8.5 8.7 99 0.0 CALM 0 0 0 0 1023.0 1023.0 1.0
27/07:02am 8.7 8.4 8.6 99 0.0 CALM 0 6 0 3 1023.0 1023.0 1.0
27/07:00am 8.4 7.6 8.3 99 0.0 SW 2 6 1 3 1022.9 1022.9 1.0
27/06:42am 8.4 7.9 8.0 97 0.2 CALM 0 0 0 0 1022.8 1022.8 1.0
27/06:30am 9.6 9.1 9.5 99 0.0 SSE 2 9 1 5 1022.7 1022.7 1.0
27/06:10am 9.9 9.9 9.8 99 0.1 CALM 0 0 0 0 1022.5 1022.5 1.0
27/06:00am 9.5 9.0 9.2 98 0.1 WNW 2 6 1 3 1022.4 1022.4 1.0
27/05:38am 9.7 9.5 8.9 95 0.4 CALM 0 0 0 0 1022.4 1022.4 1.0
27/05:30am 10.4 10.4 9.9 97 0.3 CALM 0 0 0 0 1022.3 1022.3 1.0
27/05:00am 10.8 10.2 10.3 97 0.3 SSW 4 7 2 4 1022.3 1022.3 1.0
27/04:30am 11.2 11.0 10.6 96 0.3 NNW 2 6 1 3 1022.4 1022.4 1.0
27/04:00am 11.6 10.4 10.2 91 0.7 SW 7 11 4 6 1022.4 1022.4 1.0
27/03:30am 12.1 10.6 10.5 90 0.8 SW 9 11 5 6 1022.7 1022.7 1.0
27/03:00am 12.7 11.4 11.1 90 0.8 SW 9 15 5 8 1023.0 1023.0 1.0
27/02:30am 12.8 10.7 11.0 89 0.9 WSW 13 17 7 9 1023.4 1023.4 1.0
27/02:00am 12.5 12.0 10.7 89 0.9 SSW 4 9 2 5 1023.5 1023.5 1.0
27/01:30am 12.3 11.2 10.7 90 0.8 WSW 7 11 4 6 1023.6 1023.6 1.0
27/01:00am 12.2 12.2 11.3 94 0.5 WSW 2 11 1 6 1023.5 1023.5 1.0
27/12:30am 12.5 11.2 11.1 91 0.7 SSW 9 13 5 7 1023.6 1023.6 1.0
27/12:00am 12.8 10.9 11.7 93 0.6 SSW 13 17 7 9 1023.7 1023.7 1.0
 
Date/Time
EST
Temp
°C
App
Temp
°C
Dew
Point
°C
Rel
Hum
%
Delta-T
°C
Wind Press
QNH
hPa
Press
MSL
hPa
Rain since
9am
mm
Dir  Spd
km/h
Gust
km/h
Spd
kts
Gust
kts
26/11:30pm 12.9 11.3 11.6 92 0.7 SSW 11 13 6 7 1024.0 1024.0 1.0
26/11:00pm 13.1 11.6 12.0 93 0.6 SW 11 15 6 8 1024.3 1024.3 1.0
26/10:30pm 12.9 11.4 11.8 93 0.6 SW 11 13 6 7 1024.2 1024.2 1.0
26/10:00pm 12.9 11.8 12.0 94 0.5 SW 9 11 5 6 1024.1 1024.1 1.0
26/09:30pm 13.2 12.2 12.3 94 0.5 WSW 9 11 5 6 1024.0 1024.0 1.0
26/09:00pm 13.3 14.1 12.5 95 0.4 CALM 0 0 0 0 1024.1 1024.1 1.0
26/08:30pm 13.8 13.6 12.9 94 0.5 SSW 6 9 3 5 1024.1 1024.1 1.0
26/08:09pm 13.6 14.1 12.8 95 0.4 SSW 2 9 1 5 1024.1 1024.1 1.0
26/08:00pm 13.6 14.4 12.7 94 0.5 CALM 0 0 0 0 1024.2 1024.2 1.0
26/07:58pm 13.7 14.6 12.8 94 0.5 CALM 0 0 0 0 1024.2 1024.2 0.8
26/07:30pm 13.6 14.3 12.3 92 0.7 CALM 0 0 0 0 1023.9 1023.9 0.0
26/07:00pm 14.3 14.9 12.0 86 1.2 CALM 0 0 0 0 1023.4 1023.4 0.0
26/06:30pm 14.3 14.8 11.5 83 1.5 CALM 0 0 0 0 1023.2 1023.2 0.0
26/06:00pm 15.1 14.1 11.1 77 2.1 SE 7 9 4 5 1023.1 1023.1 0.0
26/05:30pm 15.1 14.0 10.7 75 2.3 SSW 7 13 4 7 1022.8 1022.8 0.0
26/05:00pm 15.0 13.9 10.6 75 2.3 SSW 7 9 4 5 1022.6 1022.6 0.0
26/04:30pm 15.4 13.9 10.6 73 2.5 SSE 9 11 5 6 1022.6 1022.6 0.0
26/04:00pm 17.6 14.6 9.2 58 4.4 S 15 22 8 12 1022.4 1022.4 0.0
26/03:30pm 17.8 14.5 9.7 59 4.3 S 17 24 9 13 1021.9 1021.9 0.0
26/03:00pm 17.2 13.4 9.9 62 3.8 SSE 20 30 11 16 1021.9 1021.9 0.0
26/02:30pm 17.8 14.2 9.7 59 4.3 SE 19 32 10 17 1021.8 1021.8 0.0
26/02:00pm 18.4 14.4 8.9 54 4.9 SSE 20 35 11 19 1021.7 1021.7 0.0
26/01:30pm 18.3 15.8 11.1 63 3.9 SSE 15 22 8 12 1021.8 1021.8 0.0
26/01:00pm 18.6 15.5 11.7 64 3.8 SSE 19 32 10 17 1022.3 1022.3 0.0
26/12:30pm 17.8 14.5 11.6 67 3.4 SSE 20 28 11 15 1022.5 1022.5 0.0
26/12:00pm 17.2 15.0 12.1 72 2.8 S 15 24 8 13 1022.8 1022.8 0.0
26/11:30am 17.9 14.8 11.7 67 3.4 SSE 19 32 10 17 1023.2 1023.2 0.0
26/11:00am 17.2 14.8 12.7 75 2.5 S 17 26 9 14 1023.3 1023.3 0.0
26/10:30am 17.1 14.7 12.8 76 2.4 SSW 17 24 9 13 1023.5 1023.5 0.0
26/10:00am 16.2 13.7 12.4 78 2.1 SSW 17 24 9 13 1023.4 1023.4 0.0
26/09:30am 15.5 14.0 13.2 86 1.3 SW 13 17 7 9 1023.5 1023.5 0.0
26/09:05am 14.2 12.1 12.4 89 1.0 SSW 15 24 8 13 1023.6 1023.6 0.0
26/09:00am 14.1 12.4 12.5 90 0.9 SSW 13 20 7 11 1023.5 1023.5 0.2
26/08:51am 13.9 12.0 11.9 88 1.1 SSW 13 17 7 9 1023.6 1023.6 0.2
26/08:30am 14.3 12.2 11.3 82 1.6 S 13 20 7 11 1023.2 1023.2 0.2
26/08:00am 14.5 12.2 10.3 76 2.2 SSW 13 20 7 11 1022.9 1022.9 0.2
26/07:30am 14.0 12.7 9.8 76 2.2 SSW 7 13 4 7 1022.6 1022.6 0.2
26/07:00am 13.6 11.8 9.6 77 2.0 SSW 9 13 5 7 1022.3 1022.3 0.2
26/06:30am 13.5 11.8 9.7 78 2.0 SW 9 13 5 7 1022.2 1022.2 0.2
26/06:00am 13.1 11.1 10.1 82 1.5 SSW 11 17 6 9 1022.1 1022.1 0.2
26/05:30am 14.3 11.8 9.7 74 2.4 SW 13 19 7 10 1022.0 1022.0 0.2
26/05:00am 14.3 11.7 9.5 73 2.5 SSW 13 20 7 11 1021.7 1021.7 0.2
26/04:30am 14.0 10.7 9.4 74 2.4 SSW 17 24 9 13 1021.5 1021.5 0.2
26/04:00am 14.0 11.3 9.0 72 2.5 SSW 13 22 7 12 1021.5 1021.5 0.2
26/03:30am 13.9 10.5 9.1 73 2.4 SSW 17 24 9 13 1021.4 1021.4 0.2
26/03:00am 13.7 10.3 9.2 74 2.3 SSW 17 30 9 16 1021.4 1021.4 0.2
26/02:30am 13.9 10.5 9.1 73 2.4 SSW 17 24 9 13 1021.7 1021.7 0.2
26/02:00am 14.1 10.3 8.9 71 2.6 SSW 19 28 10 15 1021.6 1021.6 0.2
26/01:30am 14.2 10.7 8.8 70 2.7 SSW 17 24 9 13 1021.6 1021.6 0.2
26/01:00am 14.0 9.9 8.6 70 2.7 SSW 20 28 11 15 1021.7 1021.7 0.2
26/12:30am 14.5 10.6 8.7 68 2.9 SSW 19 28 10 15 1021.9 1021.9 0.2
26/12:00am 14.7 10.3 9.1 69 2.9 SSW 22 30 12 16 1021.8 1021.8 0.2
 
Date/Time
EST
Temp
°C
App
Temp
°C
Dew
Point
°C
Rel
Hum
%
Delta-T
°C
Wind Press
QNH
hPa
Press
MSL
hPa
Rain since
9am
mm
Dir  Spd
km/h
Gust
km/h
Spd
kts
Gust
kts
25/11:30pm 14.6 10.6 9.2 70 2.8 SSW 20 32 11 17 1021.6 1021.6 0.2
25/11:00pm 14.9 10.6 9.5 70 2.8 SSW 22 35 12 19 1021.7 1021.7 0.2
25/10:30pm 14.8 10.5 9.4 70 2.8 SSW 22 30 12 16 1021.6 1021.6 0.2
25/10:00pm 15.1 11.1 9.0 67 3.1 SSW 20 33 11 18 1021.2 1021.2 0.2
25/09:30pm 15.0 11.0 9.1 68 3.0 SSW 20 30 11 16 1021.0 1021.0 0.2
25/09:00pm 15.0 10.6 9.1 68 3.0 SW 22 33 12 18 1020.9 1020.9 0.2
25/08:30pm 15.1 11.1 9.2 68 3.0 SSW 20 28 11 15 1020.7 1020.7 0.2
25/08:00pm 15.1 11.1 9.2 68 3.0 SSW 20 26 11 14 1020.5 1020.5 0.2
25/07:30pm 15.1 11.1 9.2 68 3.0 SSW 20 37 11 20 1020.0 1020.0 0.2
25/07:00pm 15.1 10.8 9.2 68 3.0 SSW 22 33 12 18 1019.9 1019.9 0.2
25/06:30pm 14.9 11.2 9.3 69 2.9 SSW 19 26 10 14 1019.6 1019.6 0.2
25/06:00pm 15.2 11.3 9.6 69 2.9 SSW 20 33 11 18 1019.5 1019.5 0.2
25/05:30pm 14.9 11.1 9.7 71 2.7 SSW 20 32 11 17 1019.2 1019.2 0.2
25/05:00pm 15.0 10.4 9.8 71 2.7 SSW 24 41 13 22 1019.0 1019.0 0.2
25/04:30pm 15.9 10.7 8.9 63 3.6 SSW 26 37 14 20 1018.4 1018.4 0.0
25/04:00pm 16.4 11.6 8.9 61 3.9 SSW 24 33 13 18 1018.4 1018.4 0.0
25/03:30pm 16.7 12.0 9.1 61 3.9 SSW 24 37 13 20 1018.2 1018.1 0.0

Latest Capital City Observations: Canberra | Sydney | Melbourne | Brisbane | Adelaide | Perth | Hobart | Darwin

Other formats

Comma delimited format used in spreadsheet applications
http://www.bom.gov.au/fwo/IDN60901/IDN60901.94755.axf

JavaScript Object Notation format (JSON) in row-major order
http://www.bom.gov.au/fwo/IDN60901/IDN60901.94755.json

Data quality

Most of these data are generated automatically and are frequently updated. Quality checks on data are not normally performed. It is possible for incorrect values to appear. Refer to information at About Latest Weather Observations and please check the disclaimer before using these data.